sensor_id;sensor_type;location;lat;lon;timestamp;P1;durP1;ratioP1;P2;durP2;ratioP2
5363;SDS011;2705;41.410;2.160;2022-07-24T00:01:43;18.73;;;9.20;;
5363;SDS011;2705;41.410;2.160;2022-07-24T00:04:14;24.20;;;10.17;;
5363;SDS011;2705;41.410;2.160;2022-07-24T00:06:43;17.33;;;10.50;;
5363;SDS011;2705;41.410;2.160;2022-07-24T00:09:12;17.90;;;9.37;;
5363;SDS011;2705;41.410;2.160;2022-07-24T00:11:41;28.57;;;11.27;;
5363;SDS011;2705;41.410;2.160;2022-07-24T00:14:10;20.77;;;10.03;;
5363;SDS011;2705;41.410;2.160;2022-07-24T00:16:39;18.53;;;9.93;;
5363;SDS011;2705;41.410;2.160;2022-07-24T00:19:09;17.83;;;9.27;;
5363;SDS011;2705;41.410;2.160;2022-07-24T00:21:39;17.80;;;9.47;;
5363;SDS011;2705;41.410;2.160;2022-07-24T00:24:09;19.20;;;9.60;;
5363;SDS011;2705;41.410;2.160;2022-07-24T00:26:38;19.33;;;9.40;;
5363;SDS011;2705;41.410;2.160;2022-07-24T00:29:06;15.50;;;9.30;;
5363;SDS011;2705;41.410;2.160;2022-07-24T00:31:35;24.83;;;9.80;;
5363;SDS011;2705;41.410;2.160;2022-07-24T00:34:04;20.50;;;9.90;;
5363;SDS011;2705;41.410;2.160;2022-07-24T00:36:33;24.33;;;9.40;;
5363;SDS011;2705;41.410;2.160;2022-07-24T00:39:04;16.70;;;8.93;;
5363;SDS011;2705;41.410;2.160;2022-07-24T00:41:34;21.53;;;10.10;;
5363;SDS011;2705;41.410;2.160;2022-07-24T00:44:04;15.37;;;9.20;;
5363;SDS011;2705;41.410;2.160;2022-07-24T00:46:35;27.73;;;11.00;;
5363;SDS011;2705;41.410;2.160;2022-07-24T00:49:07;18.27;;;10.50;;
5363;SDS011;2705;41.410;2.160;2022-07-24T00:51:47;16.83;;;9.43;;
5363;SDS011;2705;41.410;2.160;2022-07-24T00:54:20;21.70;;;9.20;;
5363;SDS011;2705;41.410;2.160;2022-07-24T00:56:51;17.70;;;10.67;;
5363;SDS011;2705;41.410;2.160;2022-07-24T00:59:22;13.03;;;10.07;;
5363;SDS011;2705;41.410;2.160;2022-07-24T01:01:51;25.03;;;11.20;;
5363;SDS011;2705;41.410;2.160;2022-07-24T01:04:20;16.60;;;9.50;;
5363;SDS011;2705;41.410;2.160;2022-07-24T01:06:49;16.67;;;11.03;;
5363;SDS011;2705;41.410;2.160;2022-07-24T01:09:20;19.87;;;10.23;;
5363;SDS011;2705;41.410;2.160;2022-07-24T01:11:49;17.70;;;10.47;;
5363;SDS011;2705;41.410;2.160;2022-07-24T01:14:19;16.73;;;10.47;;
5363;SDS011;2705;41.410;2.160;2022-07-24T01:16:48;28.43;;;11.70;;
5363;SDS011;2705;41.410;2.160;2022-07-24T01:19:18;24.13;;;12.70;;
5363;SDS011;2705;41.410;2.160;2022-07-24T01:21:50;25.77;;;12.07;;
5363;SDS011;2705;41.410;2.160;2022-07-24T01:24:20;25.70;;;12.70;;
5363;SDS011;2705;41.410;2.160;2022-07-24T01:26:50;21.60;;;15.10;;
5363;SDS011;2705;41.410;2.160;2022-07-24T01:29:19;25.40;;;15.17;;
5363;SDS011;2705;41.410;2.160;2022-07-24T01:31:48;19.83;;;12.60;;
5363;SDS011;2705;41.410;2.160;2022-07-24T01:34:16;27.00;;;14.23;;
5363;SDS011;2705;41.410;2.160;2022-07-24T01:36:46;23.87;;;15.57;;
5363;SDS011;2705;41.410;2.160;2022-07-24T01:39:16;18.17;;;13.03;;
5363;SDS011;2705;41.410;2.160;2022-07-24T01:41:45;23.73;;;14.77;;
5363;SDS011;2705;41.410;2.160;2022-07-24T01:44:14;21.03;;;14.40;;
5363;SDS011;2705;41.410;2.160;2022-07-24T01:46:43;24.70;;;14.10;;
5363;SDS011;2705;41.410;2.160;2022-07-24T01:49:12;26.80;;;15.30;;
5363;SDS011;2705;41.410;2.160;2022-07-24T01:51:47;22.60;;;16.10;;
5363;SDS011;2705;41.410;2.160;2022-07-24T01:54:17;26.17;;;15.67;;
5363;SDS011;2705;41.410;2.160;2022-07-24T01:56:46;22.27;;;16.10;;
5363;SDS011;2705;41.410;2.160;2022-07-24T01:59:16;21.60;;;15.30;;
5363;SDS011;2705;41.410;2.160;2022-07-24T02:01:45;29.50;;;16.50;;
5363;SDS011;2705;41.410;2.160;2022-07-24T02:04:14;32.23;;;17.90;;
5363;SDS011;2705;41.410;2.160;2022-07-24T02:06:43;25.90;;;16.30;;
5363;SDS011;2705;41.410;2.160;2022-07-24T02:09:12;27.50;;;17.17;;
5363;SDS011;2705;41.410;2.160;2022-07-24T02:11:42;27.50;;;16.40;;
5363;SDS011;2705;41.410;2.160;2022-07-24T02:14:11;23.10;;;16.90;;
5363;SDS011;2705;41.410;2.160;2022-07-24T02:16:40;23.10;;;16.47;;
5363;SDS011;2705;41.410;2.160;2022-07-24T02:19:09;29.23;;;16.93;;
5363;SDS011;2705;41.410;2.160;2022-07-24T02:21:38;28.20;;;17.33;;
5363;SDS011;2705;41.410;2.160;2022-07-24T02:24:07;22.33;;;16.70;;
5363;SDS011;2705;41.410;2.160;2022-07-24T02:26:36;24.63;;;15.73;;
5363;SDS011;2705;41.410;2.160;2022-07-24T02:29:06;27.40;;;16.93;;
5363;SDS011;2705;41.410;2.160;2022-07-24T02:31:36;23.30;;;17.70;;
5363;SDS011;2705;41.410;2.160;2022-07-24T02:34:05;31.73;;;16.93;;
5363;SDS011;2705;41.410;2.160;2022-07-24T02:36:34;27.37;;;16.90;;
5363;SDS011;2705;41.410;2.160;2022-07-24T02:39:03;21.37;;;15.40;;
5363;SDS011;2705;41.410;2.160;2022-07-24T02:41:32;22.40;;;15.93;;
5363;SDS011;2705;41.410;2.160;2022-07-24T02:44:02;27.20;;;17.90;;
5363;SDS011;2705;41.410;2.160;2022-07-24T02:46:33;24.60;;;15.13;;
5363;SDS011;2705;41.410;2.160;2022-07-24T02:49:02;22.70;;;16.20;;
5363;SDS011;2705;41.410;2.160;2022-07-24T02:51:31;23.10;;;16.77;;
5363;SDS011;2705;41.410;2.160;2022-07-24T02:54:00;25.23;;;16.43;;
5363;SDS011;2705;41.410;2.160;2022-07-24T02:56:31;26.73;;;16.17;;
5363;SDS011;2705;41.410;2.160;2022-07-24T02:58:59;24.07;;;16.03;;
5363;SDS011;2705;41.410;2.160;2022-07-24T03:01:29;30.83;;;18.87;;
5363;SDS011;2705;41.410;2.160;2022-07-24T03:03:59;27.10;;;17.40;;
5363;SDS011;2705;41.410;2.160;2022-07-24T03:06:28;19.40;;;16.10;;
5363;SDS011;2705;41.410;2.160;2022-07-24T03:08:57;23.67;;;18.47;;
5363;SDS011;2705;41.410;2.160;2022-07-24T03:11:27;27.53;;;19.50;;
5363;SDS011;2705;41.410;2.160;2022-07-24T03:13:56;25.17;;;19.33;;
5363;SDS011;2705;41.410;2.160;2022-07-24T03:16:25;27.10;;;18.87;;
5363;SDS011;2705;41.410;2.160;2022-07-24T03:18:54;25.63;;;19.20;;
5363;SDS011;2705;41.410;2.160;2022-07-24T03:21:24;25.80;;;18.40;;
5363;SDS011;2705;41.410;2.160;2022-07-24T03:24:15;27.90;;;19.43;;
5363;SDS011;2705;41.410;2.160;2022-07-24T03:26:44;26.43;;;19.83;;
5363;SDS011;2705;41.410;2.160;2022-07-24T03:29:13;25.70;;;17.50;;
5363;SDS011;2705;41.410;2.160;2022-07-24T03:31:42;28.00;;;19.57;;
5363;SDS011;2705;41.410;2.160;2022-07-24T03:34:11;28.77;;;18.63;;
5363;SDS011;2705;41.410;2.160;2022-07-24T03:36:42;28.03;;;18.93;;
5363;SDS011;2705;41.410;2.160;2022-07-24T03:39:11;22.03;;;19.60;;
5363;SDS011;2705;41.410;2.160;2022-07-24T03:41:40;24.50;;;20.70;;
5363;SDS011;2705;41.410;2.160;2022-07-24T03:44:09;28.13;;;20.93;;
5363;SDS011;2705;41.410;2.160;2022-07-24T03:46:38;29.50;;;18.40;;
5363;SDS011;2705;41.410;2.160;2022-07-24T03:49:07;23.47;;;17.57;;
5363;SDS011;2705;41.410;2.160;2022-07-24T03:51:37;20.77;;;17.00;;
5363;SDS011;2705;41.410;2.160;2022-07-24T03:54:07;23.07;;;18.43;;
5363;SDS011;2705;41.410;2.160;2022-07-24T03:56:36;27.90;;;17.70;;
5363;SDS011;2705;41.410;2.160;2022-07-24T03:59:05;28.30;;;18.40;;
5363;SDS011;2705;41.410;2.160;2022-07-24T04:01:34;25.30;;;16.87;;
5363;SDS011;2705;41.410;2.160;2022-07-24T04:04:03;24.07;;;16.93;;
5363;SDS011;2705;41.410;2.160;2022-07-24T04:06:32;26.03;;;18.03;;
5363;SDS011;2705;41.410;2.160;2022-07-24T04:09:03;18.13;;;16.17;;
5363;SDS011;2705;41.410;2.160;2022-07-24T04:11:35;24.73;;;19.00;;
5363;SDS011;2705;41.410;2.160;2022-07-24T04:14:04;23.37;;;18.73;;
5363;SDS011;2705;41.410;2.160;2022-07-24T04:16:33;20.40;;;16.13;;
5363;SDS011;2705;41.410;2.160;2022-07-24T04:19:02;23.30;;;16.20;;
5363;SDS011;2705;41.410;2.160;2022-07-24T04:21:33;22.57;;;17.67;;
5363;SDS011;2705;41.410;2.160;2022-07-24T04:24:02;24.13;;;15.73;;
5363;SDS011;2705;41.410;2.160;2022-07-24T04:26:32;21.90;;;17.60;;
5363;SDS011;2705;41.410;2.160;2022-07-24T04:29:02;23.57;;;18.00;;
5363;SDS011;2705;41.410;2.160;2022-07-24T04:31:32;22.33;;;16.10;;
5363;SDS011;2705;41.410;2.160;2022-07-24T04:34:01;28.37;;;18.67;;
5363;SDS011;2705;41.410;2.160;2022-07-24T04:36:30;26.53;;;16.00;;
5363;SDS011;2705;41.410;2.160;2022-07-24T04:38:59;26.60;;;16.60;;
5363;SDS011;2705;41.410;2.160;2022-07-24T04:41:34;21.90;;;14.57;;
5363;SDS011;2705;41.410;2.160;2022-07-24T04:44:04;19.40;;;15.20;;
5363;SDS011;2705;41.410;2.160;2022-07-24T04:46:33;26.03;;;15.90;;
5363;SDS011;2705;41.410;2.160;2022-07-24T04:49:02;21.27;;;15.70;;
5363;SDS011;2705;41.410;2.160;2022-07-24T04:51:32;20.80;;;14.40;;
5363;SDS011;2705;41.410;2.160;2022-07-24T04:54:02;15.87;;;13.30;;
5363;SDS011;2705;41.410;2.160;2022-07-24T04:56:31;19.23;;;13.50;;
5363;SDS011;2705;41.410;2.160;2022-07-24T04:59:00;19.97;;;14.37;;
5363;SDS011;2705;41.410;2.160;2022-07-24T05:01:31;18.83;;;13.07;;
5363;SDS011;2705;41.410;2.160;2022-07-24T05:04:01;22.67;;;14.40;;
5363;SDS011;2705;41.410;2.160;2022-07-24T05:06:30;20.00;;;14.07;;
5363;SDS011;2705;41.410;2.160;2022-07-24T05:08:59;17.83;;;13.77;;
5363;SDS011;2705;41.410;2.160;2022-07-24T05:11:28;19.20;;;15.23;;
5363;SDS011;2705;41.410;2.160;2022-07-24T05:13:57;24.53;;;16.43;;
5363;SDS011;2705;41.410;2.160;2022-07-24T05:16:26;18.67;;;15.07;;
5363;SDS011;2705;41.410;2.160;2022-07-24T05:18:57;17.97;;;14.67;;
5363;SDS011;2705;41.410;2.160;2022-07-24T05:21:29;23.93;;;15.13;;
5363;SDS011;2705;41.410;2.160;2022-07-24T05:24:05;20.63;;;14.17;;
5363;SDS011;2705;41.410;2.160;2022-07-24T05:26:35;21.47;;;14.80;;
5363;SDS011;2705;41.410;2.160;2022-07-24T05:29:04;19.93;;;13.20;;
5363;SDS011;2705;41.410;2.160;2022-07-24T05:31:34;26.43;;;14.27;;
5363;SDS011;2705;41.410;2.160;2022-07-24T05:34:08;20.87;;;13.43;;
5363;SDS011;2705;41.410;2.160;2022-07-24T05:36:37;23.23;;;13.67;;
5363;SDS011;2705;41.410;2.160;2022-07-24T05:39:06;22.43;;;13.17;;
5363;SDS011;2705;41.410;2.160;2022-07-24T05:41:36;19.13;;;12.90;;
5363;SDS011;2705;41.410;2.160;2022-07-24T05:44:05;25.80;;;15.00;;
5363;SDS011;2705;41.410;2.160;2022-07-24T05:46:34;18.77;;;13.03;;
5363;SDS011;2705;41.410;2.160;2022-07-24T05:49:03;18.13;;;12.23;;
5363;SDS011;2705;41.410;2.160;2022-07-24T05:51:34;18.77;;;12.07;;
5363;SDS011;2705;41.410;2.160;2022-07-24T05:54:03;18.17;;;12.10;;
5363;SDS011;2705;41.410;2.160;2022-07-24T05:56:45;22.43;;;11.17;;
5363;SDS011;2705;41.410;2.160;2022-07-24T05:59:14;15.60;;;10.97;;
5363;SDS011;2705;41.410;2.160;2022-07-24T06:01:43;17.10;;;11.30;;
5363;SDS011;2705;41.410;2.160;2022-07-24T06:04:12;19.10;;;11.50;;
5363;SDS011;2705;41.410;2.160;2022-07-24T06:06:42;17.00;;;11.60;;
5363;SDS011;2705;41.410;2.160;2022-07-24T06:09:11;11.90;;;10.60;;
5363;SDS011;2705;41.410;2.160;2022-07-24T06:11:40;22.07;;;12.43;;
5363;SDS011;2705;41.410;2.160;2022-07-24T06:14:10;23.00;;;11.80;;
5363;SDS011;2705;41.410;2.160;2022-07-24T06:16:39;18.50;;;11.63;;
5363;SDS011;2705;41.410;2.160;2022-07-24T06:19:08;14.33;;;10.83;;
5363;SDS011;2705;41.410;2.160;2022-07-24T06:21:37;15.57;;;10.10;;
5363;SDS011;2705;41.410;2.160;2022-07-24T06:24:13;18.70;;;10.57;;
5363;SDS011;2705;41.410;2.160;2022-07-24T06:26:42;14.40;;;8.90;;
5363;SDS011;2705;41.410;2.160;2022-07-24T06:29:32;17.60;;;10.20;;
5363;SDS011;2705;41.410;2.160;2022-07-24T06:32:01;13.30;;;9.40;;
5363;SDS011;2705;41.410;2.160;2022-07-24T06:34:30;13.37;;;10.23;;
5363;SDS011;2705;41.410;2.160;2022-07-24T06:36:59;17.20;;;10.20;;
5363;SDS011;2705;41.410;2.160;2022-07-24T06:39:29;16.03;;;8.93;;
5363;SDS011;2705;41.410;2.160;2022-07-24T06:41:58;16.40;;;9.10;;
5363;SDS011;2705;41.410;2.160;2022-07-24T06:44:28;15.00;;;10.10;;
5363;SDS011;2705;41.410;2.160;2022-07-24T06:46:57;18.97;;;10.10;;
5363;SDS011;2705;41.410;2.160;2022-07-24T06:49:26;20.10;;;9.17;;
5363;SDS011;2705;41.410;2.160;2022-07-24T06:51:55;16.70;;;9.40;;
5363;SDS011;2705;41.410;2.160;2022-07-24T06:54:24;22.30;;;8.27;;
5363;SDS011;2705;41.410;2.160;2022-07-24T06:56:55;13.13;;;9.30;;
5363;SDS011;2705;41.410;2.160;2022-07-24T06:59:24;20.63;;;9.23;;
5363;SDS011;2705;41.410;2.160;2022-07-24T07:01:53;15.70;;;8.43;;
5363;SDS011;2705;41.410;2.160;2022-07-24T07:04:22;11.87;;;8.00;;
5363;SDS011;2705;41.410;2.160;2022-07-24T07:06:51;12.73;;;8.50;;
5363;SDS011;2705;41.410;2.160;2022-07-24T07:09:20;12.57;;;7.77;;
5363;SDS011;2705;41.410;2.160;2022-07-24T07:11:49;9.70;;;7.70;;
5363;SDS011;2705;41.410;2.160;2022-07-24T07:14:19;8.37;;;6.80;;
5363;SDS011;2705;41.410;2.160;2022-07-24T07:16:48;9.80;;;7.20;;
5363;SDS011;2705;41.410;2.160;2022-07-24T07:19:17;9.13;;;6.60;;
5363;SDS011;2705;41.410;2.160;2022-07-24T07:21:46;16.63;;;8.37;;
5363;SDS011;2705;41.410;2.160;2022-07-24T07:24:15;13.47;;;8.30;;
5363;SDS011;2705;41.410;2.160;2022-07-24T07:26:45;11.30;;;7.43;;
5363;SDS011;2705;41.410;2.160;2022-07-24T07:29:14;13.30;;;8.80;;
5363;SDS011;2705;41.410;2.160;2022-07-24T07:31:44;15.03;;;6.80;;
5363;SDS011;2705;41.410;2.160;2022-07-24T07:34:14;9.30;;;8.00;;
5363;SDS011;2705;41.410;2.160;2022-07-24T07:36:42;7.23;;;6.20;;
5363;SDS011;2705;41.410;2.160;2022-07-24T07:39:12;10.70;;;6.70;;
5363;SDS011;2705;41.410;2.160;2022-07-24T07:41:41;12.03;;;6.93;;
5363;SDS011;2705;41.410;2.160;2022-07-24T07:44:10;9.80;;;6.30;;
5363;SDS011;2705;41.410;2.160;2022-07-24T07:46:39;9.90;;;6.10;;
5363;SDS011;2705;41.410;2.160;2022-07-24T07:49:09;6.93;;;6.20;;
5363;SDS011;2705;41.410;2.160;2022-07-24T07:51:42;13.60;;;7.27;;
5363;SDS011;2705;41.410;2.160;2022-07-24T07:54:15;8.40;;;5.80;;
5363;SDS011;2705;41.410;2.160;2022-07-24T07:56:44;10.37;;;5.93;;
5363;SDS011;2705;41.410;2.160;2022-07-24T07:59:13;13.83;;;6.27;;
5363;SDS011;2705;41.410;2.160;2022-07-24T08:01:42;16.77;;;6.87;;
5363;SDS011;2705;41.410;2.160;2022-07-24T08:04:13;11.20;;;5.50;;
5363;SDS011;2705;41.410;2.160;2022-07-24T08:06:42;12.73;;;5.47;;
5363;SDS011;2705;41.410;2.160;2022-07-24T08:09:13;10.50;;;7.30;;
5363;SDS011;2705;41.410;2.160;2022-07-24T08:11:43;11.63;;;7.53;;
5363;SDS011;2705;41.410;2.160;2022-07-24T08:14:12;7.70;;;5.47;;
5363;SDS011;2705;41.410;2.160;2022-07-24T08:16:41;11.47;;;7.00;;
5363;SDS011;2705;41.410;2.160;2022-07-24T08:19:10;11.80;;;6.90;;
5363;SDS011;2705;41.410;2.160;2022-07-24T08:21:41;13.17;;;5.93;;
5363;SDS011;2705;41.410;2.160;2022-07-24T08:24:10;9.53;;;5.63;;
5363;SDS011;2705;41.410;2.160;2022-07-24T08:26:39;8.00;;;5.37;;
5363;SDS011;2705;41.410;2.160;2022-07-24T08:29:08;11.37;;;6.33;;
5363;SDS011;2705;41.410;2.160;2022-07-24T08:31:37;6.40;;;5.17;;
5363;SDS011;2705;41.410;2.160;2022-07-24T08:34:07;8.63;;;6.17;;
5363;SDS011;2705;41.410;2.160;2022-07-24T08:36:36;10.40;;;5.43;;
5363;SDS011;2705;41.410;2.160;2022-07-24T08:39:07;12.97;;;7.30;;
5363;SDS011;2705;41.410;2.160;2022-07-24T08:41:37;13.90;;;8.60;;
5363;SDS011;2705;41.410;2.160;2022-07-24T08:44:06;12.87;;;9.40;;
5363;SDS011;2705;41.410;2.160;2022-07-24T08:46:37;18.83;;;9.83;;
5363;SDS011;2705;41.410;2.160;2022-07-24T08:49:09;13.70;;;9.43;;
5363;SDS011;2705;41.410;2.160;2022-07-24T08:51:40;17.97;;;8.43;;
5363;SDS011;2705;41.410;2.160;2022-07-24T08:54:12;12.37;;;8.57;;
5363;SDS011;2705;41.410;2.160;2022-07-24T08:56:42;13.97;;;8.33;;
5363;SDS011;2705;41.410;2.160;2022-07-24T08:59:17;11.60;;;8.80;;
5363;SDS011;2705;41.410;2.160;2022-07-24T09:01:53;16.90;;;9.20;;
5363;SDS011;2705;41.410;2.160;2022-07-24T09:04:32;14.77;;;8.50;;
5363;SDS011;2705;41.410;2.160;2022-07-24T09:07:05;14.27;;;8.70;;
5363;SDS011;2705;41.410;2.160;2022-07-24T09:09:38;11.00;;;7.30;;
5363;SDS011;2705;41.410;2.160;2022-07-24T09:12:09;17.10;;;8.90;;
5363;SDS011;2705;41.410;2.160;2022-07-24T09:14:41;13.60;;;7.70;;
5363;SDS011;2705;41.410;2.160;2022-07-24T09:17:12;11.97;;;8.00;;
5363;SDS011;2705;41.410;2.160;2022-07-24T09:19:46;8.93;;;7.90;;
5363;SDS011;2705;41.410;2.160;2022-07-24T09:22:23;10.23;;;7.73;;
5363;SDS011;2705;41.410;2.160;2022-07-24T09:25:09;12.27;;;8.40;;
5363;SDS011;2705;41.410;2.160;2022-07-24T09:27:41;11.00;;;6.30;;
5363;SDS011;2705;41.410;2.160;2022-07-24T09:30:24;7.10;;;6.00;;
5363;SDS011;2705;41.410;2.160;2022-07-24T09:32:55;7.57;;;6.37;;
5363;SDS011;2705;41.410;2.160;2022-07-24T09:35:29;12.47;;;7.37;;
5363;SDS011;2705;41.410;2.160;2022-07-24T09:38:00;12.60;;;6.90;;
5363;SDS011;2705;41.410;2.160;2022-07-24T09:40:33;8.00;;;6.73;;
5363;SDS011;2705;41.410;2.160;2022-07-24T09:43:13;10.53;;;6.40;;
5363;SDS011;2705;41.410;2.160;2022-07-24T09:45:53;11.30;;;7.13;;
5363;SDS011;2705;41.410;2.160;2022-07-24T09:48:25;9.57;;;7.33;;
5363;SDS011;2705;41.410;2.160;2022-07-24T09:50:57;10.50;;;6.30;;
5363;SDS011;2705;41.410;2.160;2022-07-24T09:53:28;13.03;;;5.83;;
5363;SDS011;2705;41.410;2.160;2022-07-24T09:56:06;8.93;;;7.10;;
5363;SDS011;2705;41.410;2.160;2022-07-24T09:58:38;10.90;;;6.50;;
5363;SDS011;2705;41.410;2.160;2022-07-24T10:01:08;8.47;;;7.60;;
5363;SDS011;2705;41.410;2.160;2022-07-24T10:03:39;14.83;;;6.70;;
5363;SDS011;2705;41.410;2.160;2022-07-24T10:06:10;11.20;;;6.70;;
5363;SDS011;2705;41.410;2.160;2022-07-24T10:08:43;10.20;;;7.20;;
5363;SDS011;2705;41.410;2.160;2022-07-24T10:11:15;10.97;;;6.83;;
5363;SDS011;2705;41.410;2.160;2022-07-24T10:13:45;12.40;;;7.43;;
5363;SDS011;2705;41.410;2.160;2022-07-24T10:16:24;10.60;;;7.37;;
5363;SDS011;2705;41.410;2.160;2022-07-24T10:18:56;11.63;;;6.53;;
5363;SDS011;2705;41.410;2.160;2022-07-24T10:21:26;8.90;;;6.10;;
5363;SDS011;2705;41.410;2.160;2022-07-24T10:27:24;7.87;;;5.73;;
5363;SDS011;2705;41.410;2.160;2022-07-24T10:29:55;16.13;;;6.87;;
5363;SDS011;2705;41.410;2.160;2022-07-24T10:32:27;12.53;;;7.00;;
5363;SDS011;2705;41.410;2.160;2022-07-24T10:35:00;8.43;;;5.60;;
5363;SDS011;2705;41.410;2.160;2022-07-24T10:37:39;9.57;;;5.77;;
5363;SDS011;2705;41.410;2.160;2022-07-24T10:40:18;11.73;;;6.70;;
5363;SDS011;2705;41.410;2.160;2022-07-24T10:43:09;12.03;;;7.33;;
5363;SDS011;2705;41.410;2.160;2022-07-24T10:45:39;13.83;;;6.77;;
5363;SDS011;2705;41.410;2.160;2022-07-24T10:48:27;10.70;;;6.33;;
5363;SDS011;2705;41.410;2.160;2022-07-24T10:51:02;9.33;;;6.53;;
5363;SDS011;2705;41.410;2.160;2022-07-24T10:53:45;9.20;;;6.97;;
5363;SDS011;2705;41.410;2.160;2022-07-24T10:56:20;19.07;;;7.60;;
5363;SDS011;2705;41.410;2.160;2022-07-24T10:59:04;9.57;;;7.43;;
5363;SDS011;2705;41.410;2.160;2022-07-24T11:01:37;9.17;;;5.77;;
5363;SDS011;2705;41.410;2.160;2022-07-24T11:04:26;10.47;;;6.40;;
5363;SDS011;2705;41.410;2.160;2022-07-24T11:07:07;6.70;;;5.90;;
5363;SDS011;2705;41.410;2.160;2022-07-24T11:09:53;9.33;;;7.20;;
5363;SDS011;2705;41.410;2.160;2022-07-24T11:12:26;7.70;;;6.50;;
5363;SDS011;2705;41.410;2.160;2022-07-24T11:15:02;7.80;;;5.93;;
5363;SDS011;2705;41.410;2.160;2022-07-24T11:17:49;11.93;;;6.40;;
5363;SDS011;2705;41.410;2.160;2022-07-24T11:20:19;9.40;;;6.30;;
5363;SDS011;2705;41.410;2.160;2022-07-24T11:22:53;11.73;;;7.10;;
5363;SDS011;2705;41.410;2.160;2022-07-24T11:25:26;11.40;;;7.20;;
5363;SDS011;2705;41.410;2.160;2022-07-24T11:28:11;9.93;;;6.60;;
5363;SDS011;2705;41.410;2.160;2022-07-24T11:30:43;9.40;;;7.40;;
5363;SDS011;2705;41.410;2.160;2022-07-24T11:33:17;15.37;;;7.60;;
5363;SDS011;2705;41.410;2.160;2022-07-24T11:35:49;10.07;;;6.70;;
5363;SDS011;2705;41.410;2.160;2022-07-24T11:38:19;10.50;;;6.10;;
5363;SDS011;2705;41.410;2.160;2022-07-24T11:41:03;9.27;;;6.60;;
5363;SDS011;2705;41.410;2.160;2022-07-24T11:43:33;12.00;;;6.17;;
5363;SDS011;2705;41.410;2.160;2022-07-24T11:46:04;10.53;;;6.13;;
5363;SDS011;2705;41.410;2.160;2022-07-24T11:48:33;8.40;;;6.23;;
5363;SDS011;2705;41.410;2.160;2022-07-24T11:51:04;7.90;;;6.27;;
5363;SDS011;2705;41.410;2.160;2022-07-24T11:53:54;10.23;;;6.70;;
5363;SDS011;2705;41.410;2.160;2022-07-24T11:56:25;12.93;;;6.70;;
5363;SDS011;2705;41.410;2.160;2022-07-24T11:58:54;9.30;;;5.90;;
5363;SDS011;2705;41.410;2.160;2022-07-24T12:01:25;6.30;;;5.43;;
5363;SDS011;2705;41.410;2.160;2022-07-24T12:03:57;7.53;;;5.53;;
5363;SDS011;2705;41.410;2.160;2022-07-24T12:06:30;9.90;;;5.43;;
5363;SDS011;2705;41.410;2.160;2022-07-24T12:09:05;7.63;;;4.77;;
5363;SDS011;2705;41.410;2.160;2022-07-24T12:11:37;6.77;;;4.20;;
5363;SDS011;2705;41.410;2.160;2022-07-24T12:14:12;6.77;;;4.67;;
5363;SDS011;2705;41.410;2.160;2022-07-24T12:16:50;6.50;;;4.77;;
5363;SDS011;2705;41.410;2.160;2022-07-24T12:19:21;11.30;;;4.90;;
5363;SDS011;2705;41.410;2.160;2022-07-24T12:21:52;6.90;;;4.43;;
5363;SDS011;2705;41.410;2.160;2022-07-24T12:24:22;6.43;;;4.50;;
5363;SDS011;2705;41.410;2.160;2022-07-24T12:26:58;9.47;;;5.70;;
5363;SDS011;2705;41.410;2.160;2022-07-24T12:29:27;6.50;;;4.50;;
5363;SDS011;2705;41.410;2.160;2022-07-24T12:34:44;10.37;;;4.60;;
5363;SDS011;2705;41.410;2.160;2022-07-24T12:37:36;6.90;;;4.40;;
5363;SDS011;2705;41.410;2.160;2022-07-24T12:40:06;4.83;;;4.33;;
5363;SDS011;2705;41.410;2.160;2022-07-24T12:42:38;10.60;;;4.57;;
5363;SDS011;2705;41.410;2.160;2022-07-24T12:45:08;7.00;;;4.50;;
5363;SDS011;2705;41.410;2.160;2022-07-24T12:50:34;5.30;;;4.17;;
5363;SDS011;2705;41.410;2.160;2022-07-24T12:53:25;13.77;;;5.50;;
5363;SDS011;2705;41.410;2.160;2022-07-24T12:56:03;7.03;;;4.00;;
5363;SDS011;2705;41.410;2.160;2022-07-24T12:58:50;6.10;;;3.80;;
5363;SDS011;2705;41.410;2.160;2022-07-24T13:01:45;9.17;;;3.50;;
5363;SDS011;2705;41.410;2.160;2022-07-24T13:04:17;7.10;;;4.50;;
5363;SDS011;2705;41.410;2.160;2022-07-24T13:06:48;4.87;;;4.23;;
5363;SDS011;2705;41.410;2.160;2022-07-24T13:09:18;5.60;;;3.60;;
5363;SDS011;2705;41.410;2.160;2022-07-24T13:11:48;16.37;;;5.87;;
5363;SDS011;2705;41.410;2.160;2022-07-24T13:14:19;7.43;;;4.57;;
5363;SDS011;2705;41.410;2.160;2022-07-24T13:16:49;7.53;;;4.40;;
5363;SDS011;2705;41.410;2.160;2022-07-24T13:19:21;5.33;;;3.80;;
5363;SDS011;2705;41.410;2.160;2022-07-24T13:21:50;5.57;;;4.23;;
5363;SDS011;2705;41.410;2.160;2022-07-24T13:24:19;6.70;;;4.10;;
5363;SDS011;2705;41.410;2.160;2022-07-24T13:26:49;5.57;;;3.80;;
5363;SDS011;2705;41.410;2.160;2022-07-24T13:29:25;6.77;;;4.20;;
5363;SDS011;2705;41.410;2.160;2022-07-24T13:31:54;4.90;;;4.30;;
5363;SDS011;2705;41.410;2.160;2022-07-24T13:34:24;5.97;;;4.63;;
5363;SDS011;2705;41.410;2.160;2022-07-24T13:36:57;14.73;;;4.60;;
5363;SDS011;2705;41.410;2.160;2022-07-24T13:39:26;8.30;;;4.00;;
5363;SDS011;2705;41.410;2.160;2022-07-24T13:41:56;9.40;;;3.80;;
5363;SDS011;2705;41.410;2.160;2022-07-24T13:44:24;11.00;;;4.13;;
5363;SDS011;2705;41.410;2.160;2022-07-24T13:46:54;5.23;;;3.90;;
5363;SDS011;2705;41.410;2.160;2022-07-24T13:49:28;6.33;;;3.90;;
5363;SDS011;2705;41.410;2.160;2022-07-24T13:52:03;5.40;;;4.00;;
5363;SDS011;2705;41.410;2.160;2022-07-24T13:54:36;5.93;;;3.77;;
5363;SDS011;2705;41.410;2.160;2022-07-24T13:57:06;7.27;;;4.07;;
5363;SDS011;2705;41.410;2.160;2022-07-24T13:59:35;5.37;;;4.17;;
5363;SDS011;2705;41.410;2.160;2022-07-24T14:02:04;6.03;;;4.03;;
5363;SDS011;2705;41.410;2.160;2022-07-24T14:04:35;9.50;;;4.63;;
5363;SDS011;2705;41.410;2.160;2022-07-24T14:07:05;6.63;;;3.43;;
5363;SDS011;2705;41.410;2.160;2022-07-24T14:09:34;6.30;;;3.60;;
5363;SDS011;2705;41.410;2.160;2022-07-24T14:12:03;5.70;;;3.87;;
5363;SDS011;2705;41.410;2.160;2022-07-24T14:14:39;5.73;;;3.37;;
5363;SDS011;2705;41.410;2.160;2022-07-24T14:17:09;5.20;;;3.23;;
5363;SDS011;2705;41.410;2.160;2022-07-24T14:19:39;5.10;;;3.47;;
5363;SDS011;2705;41.410;2.160;2022-07-24T14:22:08;4.93;;;3.80;;
5363;SDS011;2705;41.410;2.160;2022-07-24T14:24:38;10.47;;;3.77;;
5363;SDS011;2705;41.410;2.160;2022-07-24T14:27:10;4.00;;;3.40;;
5363;SDS011;2705;41.410;2.160;2022-07-24T14:29:39;6.23;;;4.00;;
5363;SDS011;2705;41.410;2.160;2022-07-24T14:32:08;5.43;;;3.53;;
5363;SDS011;2705;41.410;2.160;2022-07-24T14:34:39;11.20;;;3.83;;
5363;SDS011;2705;41.410;2.160;2022-07-24T14:37:08;6.80;;;3.43;;
5363;SDS011;2705;41.410;2.160;2022-07-24T14:39:44;4.40;;;3.80;;
5363;SDS011;2705;41.410;2.160;2022-07-24T14:42:13;5.97;;;3.67;;
5363;SDS011;2705;41.410;2.160;2022-07-24T14:44:42;5.00;;;3.80;;
5363;SDS011;2705;41.410;2.160;2022-07-24T14:47:14;5.03;;;3.50;;
5363;SDS011;2705;41.410;2.160;2022-07-24T14:49:44;5.77;;;3.40;;
5363;SDS011;2705;41.410;2.160;2022-07-24T14:52:13;3.30;;;3.00;;
5363;SDS011;2705;41.410;2.160;2022-07-24T14:54:45;3.20;;;2.83;;
5363;SDS011;2705;41.410;2.160;2022-07-24T14:57:14;4.37;;;3.33;;
5363;SDS011;2705;41.410;2.160;2022-07-24T14:59:43;5.87;;;3.83;;
5363;SDS011;2705;41.410;2.160;2022-07-24T15:02:12;7.77;;;3.43;;
5363;SDS011;2705;41.410;2.160;2022-07-24T15:04:41;4.50;;;2.50;;
5363;SDS011;2705;41.410;2.160;2022-07-24T15:07:13;7.07;;;2.97;;
5363;SDS011;2705;41.410;2.160;2022-07-24T15:09:46;4.47;;;3.43;;
5363;SDS011;2705;41.410;2.160;2022-07-24T15:12:18;3.40;;;2.97;;
5363;SDS011;2705;41.410;2.160;2022-07-24T15:14:51;6.13;;;3.60;;
5363;SDS011;2705;41.410;2.160;2022-07-24T15:17:20;5.40;;;3.27;;
5363;SDS011;2705;41.410;2.160;2022-07-24T15:19:50;4.33;;;3.30;;
5363;SDS011;2705;41.410;2.160;2022-07-24T15:22:20;3.10;;;2.80;;
5363;SDS011;2705;41.410;2.160;2022-07-24T15:24:50;5.40;;;3.23;;
5363;SDS011;2705;41.410;2.160;2022-07-24T15:27:19;15.13;;;3.90;;
5363;SDS011;2705;41.410;2.160;2022-07-24T15:29:48;3.67;;;3.27;;
5363;SDS011;2705;41.410;2.160;2022-07-24T15:32:18;6.83;;;3.20;;
5363;SDS011;2705;41.410;2.160;2022-07-24T15:34:51;4.87;;;3.63;;